createdAt,value
2022-12-26T00:01:26.806Z,10.08
2022-12-26T00:03:59.886Z,10.09
2022-12-26T00:06:33.963Z,10.08
2022-12-26T00:09:07.771Z,10.02
2022-12-26T00:11:40.995Z,9.99
2022-12-26T00:14:16.549Z,10.06
2022-12-26T00:16:49.433Z,10.05
2022-12-26T00:19:22.316Z,10.05
2022-12-26T00:21:57.424Z,10.08
2022-12-26T00:24:30.394Z,10.06
2022-12-26T00:27:04.240Z,9.99
2022-12-26T00:29:38.368Z,10.04
2022-12-26T00:32:11.181Z,10.04
2022-12-26T00:34:44.783Z,10.02
2022-12-26T00:37:17.657Z,10.02
2022-12-26T00:39:50.486Z,10.03
2022-12-26T00:42:23.691Z,10.06
2022-12-26T00:44:57.982Z,9.99
2022-12-26T00:47:31.148Z,10.00
2022-12-26T00:50:13.763Z,10.01
2022-12-26T00:52:47.975Z,9.98
2022-12-26T00:55:21.141Z,9.99
2022-12-26T00:57:53.965Z,9.98
2022-12-26T01:00:28.841Z,9.98
2022-12-26T01:03:01.941Z,10.04
2022-12-26T01:05:35.338Z,9.99
2022-12-26T01:08:22.792Z,10.00
2022-12-26T01:10:57.645Z,9.98
2022-12-26T01:13:30.460Z,10.00
2022-12-26T01:16:06.358Z,9.95
2022-12-26T01:18:39.512Z,9.96
2022-12-26T01:21:12.481Z,9.91
2022-12-26T01:23:45.369Z,9.85
2022-12-26T01:26:20.300Z,9.87
2022-12-26T01:28:54.273Z,9.79
2022-12-26T01:31:31.443Z,9.88
2022-12-26T01:34:04.412Z,9.84
2022-12-26T01:36:37.328Z,9.84
2022-12-26T01:39:10.138Z,9.84
2022-12-26T01:41:42.974Z,9.82
2022-12-26T01:44:48.984Z,9.79
2022-12-26T01:47:26.710Z,9.87
2022-12-26T01:49:59.670Z,9.86
2022-12-26T01:52:37.774Z,9.84
2022-12-26T01:55:15.234Z,9.84
2022-12-26T01:57:54.679Z,9.76
2022-12-26T02:00:27.716Z,9.85
2022-12-26T02:03:19.584Z,9.77
2022-12-26T02:05:52.494Z,9.84
2022-12-26T02:08:30.192Z,9.85
2022-12-26T02:11:11.742Z,9.84
2022-12-26T02:13:44.860Z,9.84
2022-12-26T02:16:19.940Z,9.83
2022-12-26T02:18:54.144Z,9.83
2022-12-26T02:22:04.510Z,9.82
2022-12-26T02:24:59.431Z,9.82
2022-12-26T02:28:01.536Z,9.80
2022-12-26T02:30:43.115Z,9.77
2022-12-26T02:33:32.713Z,9.76
2022-12-26T02:36:40.476Z,9.82
2022-12-26T02:39:44.614Z,9.78
2022-12-26T02:42:36.058Z,9.86
2022-12-26T02:45:35.246Z,9.81
2022-12-26T02:48:15.576Z,9.73
2022-12-26T02:51:15.901Z,9.79
2022-12-26T02:54:16.651Z,9.73
2022-12-26T02:57:12.324Z,9.84
2022-12-26T03:00:07.657Z,9.83
2022-12-26T03:03:03.074Z,9.83
2022-12-26T03:06:00.557Z,9.83
2022-12-26T03:08:55.353Z,9.84
2022-12-26T03:11:51.190Z,9.75
2022-12-26T03:14:29.301Z,9.77
2022-12-26T03:17:21.486Z,9.79
2022-12-26T03:20:01.550Z,9.77
2022-12-26T03:22:43.110Z,9.75
2022-12-26T03:25:39.175Z,9.75
2022-12-26T03:28:14.008Z,9.74
2022-12-26T03:30:49.214Z,9.77
2022-12-26T03:33:43.184Z,9.74
2022-12-26T03:36:19.487Z,9.80
2022-12-26T03:39:07.477Z,9.75
2022-12-26T03:42:08.912Z,9.71
2022-12-26T03:45:10.271Z,9.69
2022-12-26T03:48:10.794Z,9.67
2022-12-26T03:51:06.570Z,9.67
2022-12-26T03:54:03.975Z,9.62
2022-12-26T03:57:00.126Z,9.54
2022-12-26T04:00:10.365Z,9.50
2022-12-26T04:03:07.193Z,9.48
2022-12-26T04:06:04.494Z,9.47
2022-12-26T04:09:03.851Z,9.50
2022-12-26T04:11:57.921Z,9.38
2022-12-26T04:15:12.324Z,9.25
2022-12-26T04:18:06.841Z,9.20
2022-12-26T04:21:05.358Z,9.26
2022-12-26T04:24:02.479Z,9.27
2022-12-26T04:26:59.595Z,9.24
2022-12-26T04:29:49.756Z,9.21
2022-12-26T04:32:50.355Z,9.19
2022-12-26T04:35:46.467Z,9.10
2022-12-26T04:38:43.055Z,9.09
2022-12-26T04:41:35.341Z,9.06
2022-12-26T04:44:11.841Z,9.07
2022-12-26T04:46:47.161Z,9.08
2022-12-26T04:49:40.569Z,9.18
2022-12-26T04:52:15.596Z,9.18
2022-12-26T04:54:48.633Z,9.17
2022-12-26T04:57:22.717Z,9.23
2022-12-26T04:59:56.932Z,9.29
2022-12-26T05:02:48.017Z,9.25
2022-12-26T05:05:38.638Z,9.28
2022-12-26T05:08:41.509Z,9.26
2022-12-26T05:11:14.495Z,9.29
2022-12-26T05:13:50.134Z,9.26
2022-12-26T05:16:43.568Z,9.20
2022-12-26T05:19:35.856Z,9.16
2022-12-26T05:22:29.354Z,9.12
2022-12-26T05:25:19.460Z,9.18
2022-12-26T05:28:09.761Z,9.17
2022-12-26T05:30:42.508Z,9.16
2022-12-26T05:33:34.455Z,9.18
2022-12-26T05:36:07.697Z,9.17
2022-12-26T05:38:40.581Z,9.18
2022-12-26T05:41:13.378Z,9.19
2022-12-26T05:43:46.161Z,9.19
2022-12-26T05:46:19.896Z,9.12
2022-12-26T05:48:54.827Z,9.15
2022-12-26T05:51:27.728Z,9.14
2022-12-26T05:54:00.946Z,9.06
2022-12-26T05:56:33.827Z,9.10
2022-12-26T05:59:06.668Z,9.08
2022-12-26T06:01:39.575Z,9.09
2022-12-26T06:04:14.769Z,9.05
2022-12-26T06:06:47.580Z,9.06
2022-12-26T06:09:20.489Z,9.00
2022-12-26T06:11:53.262Z,8.97
2022-12-26T06:14:26.199Z,8.90
2022-12-26T06:16:59.233Z,8.91
2022-12-26T06:19:33.894Z,8.92
2022-12-26T06:22:07.047Z,8.92
2022-12-26T06:24:39.870Z,8.96
2022-12-26T06:27:12.734Z,8.93
2022-12-26T06:29:45.534Z,8.91
2022-12-26T06:32:18.377Z,8.86
2022-12-26T06:34:52.539Z,8.91
2022-12-26T06:37:25.414Z,8.88
2022-12-26T06:39:58.199Z,8.87
2022-12-26T06:42:31.048Z,8.84
2022-12-26T06:45:05.431Z,8.83
2022-12-26T06:47:38.298Z,8.82
2022-12-26T06:50:12.886Z,8.80
2022-12-26T06:52:45.778Z,8.75
2022-12-26T06:55:18.772Z,8.73
2022-12-26T06:57:53.373Z,8.79
2022-12-26T07:00:26.345Z,8.72
2022-12-26T07:02:59.322Z,8.82
2022-12-26T07:05:36.905Z,8.74
2022-12-26T07:08:09.754Z,8.78
2022-12-26T07:10:42.633Z,8.78
2022-12-26T07:13:15.468Z,8.80
2022-12-26T07:15:48.307Z,8.69
2022-12-26T07:18:21.111Z,8.75
2022-12-26T07:20:55.661Z,8.77
2022-12-26T07:23:29.620Z,8.65
2022-12-26T07:26:02.510Z,8.76
2022-12-26T07:28:35.704Z,8.80
2022-12-26T07:31:08.563Z,8.82
2022-12-26T07:33:41.393Z,8.93
2022-12-26T07:36:15.586Z,8.93
2022-12-26T07:38:48.653Z,8.95
2022-12-26T07:41:38.997Z,8.98
2022-12-26T07:44:13.487Z,8.97
2022-12-26T07:46:47.010Z,9.01
2022-12-26T07:49:19.830Z,8.98
2022-12-26T07:51:54.140Z,9.06
2022-12-26T07:54:28.536Z,9.14
2022-12-26T07:57:29.692Z,9.27
2022-12-26T07:59:54.431Z,9.28
2022-12-26T08:02:28.604Z,9.28
2022-12-26T08:05:01.589Z,9.41
2022-12-26T08:07:36.179Z,9.38
2022-12-26T08:10:09.658Z,9.47
2022-12-26T08:12:42.549Z,9.50
2022-12-26T08:15:15.436Z,9.54
2022-12-26T08:17:48.327Z,9.50
2022-12-26T08:20:21.127Z,9.52
2022-12-26T08:25:33.088Z,9.45
2022-12-26T08:28:06.355Z,9.42
2022-12-26T08:30:41.479Z,9.50
2022-12-26T08:33:14.539Z,9.51
2022-12-26T08:35:47.370Z,9.61
2022-12-26T08:38:21.513Z,9.57
2022-12-26T08:40:56.532Z,9.53
2022-12-26T08:43:45.339Z,9.52
2022-12-26T08:46:23.471Z,9.43
2022-12-26T08:48:56.282Z,9.47
2022-12-26T08:51:29.063Z,9.39
2022-12-26T08:54:03.495Z,9.48
2022-12-26T08:56:36.561Z,9.42
2022-12-26T08:59:09.637Z,9.41
2022-12-26T09:01:42.538Z,9.43
2022-12-26T09:04:15.633Z,9.51
2022-12-26T09:06:49.171Z,9.47
2022-12-26T09:09:25.822Z,9.65
2022-12-26T09:11:58.634Z,9.83
2022-12-26T09:14:31.652Z,9.82
2022-12-26T09:17:05.064Z,9.87
2022-12-26T09:19:37.899Z,9.90
2022-12-26T09:22:33.350Z,10.05
2022-12-26T09:25:10.189Z,10.22
2022-12-26T09:27:43.269Z,10.15
2022-12-26T09:30:17.432Z,10.05
2022-12-26T09:32:50.894Z,10.05
2022-12-26T09:35:23.741Z,10.05
2022-12-26T09:37:56.476Z,10.12
2022-12-26T09:40:39.402Z,10.31
2022-12-26T09:43:24.769Z,10.34
2022-12-26T09:46:07.020Z,10.42
2022-12-26T09:48:47.611Z,10.36
2022-12-26T09:51:20.596Z,10.35
2022-12-26T09:53:55.972Z,10.53
2022-12-26T09:59:29.568Z,10.45
2022-12-26T10:02:02.476Z,10.42
2022-12-26T10:04:35.623Z,10.34
2022-12-26T10:07:22.079Z,10.27
2022-12-26T10:10:12.086Z,10.35
2022-12-26T10:12:58.815Z,10.42
2022-12-26T10:15:42.200Z,10.43
2022-12-26T10:18:25.220Z,10.42
2022-12-26T10:21:13.455Z,10.42
2022-12-26T10:23:49.887Z,10.49
2022-12-26T10:26:26.084Z,10.54
2022-12-26T10:29:06.765Z,10.51
2022-12-26T10:31:43.861Z,10.46
2022-12-26T10:34:21.487Z,10.46
2022-12-26T10:37:00.001Z,10.50
2022-12-26T10:39:36.863Z,10.39
2022-12-26T10:42:15.691Z,10.46
2022-12-26T10:44:50.008Z,10.42
2022-12-26T10:47:28.366Z,10.42
2022-12-26T10:50:02.018Z,10.41
2022-12-26T10:52:39.863Z,10.33
2022-12-26T10:55:28.170Z,10.19
2022-12-26T10:58:07.967Z,10.31
2022-12-26T11:00:42.344Z,10.29
2022-12-26T11:03:17.202Z,10.25
2022-12-26T11:06:07.955Z,10.20
2022-12-26T11:08:49.133Z,10.23
2022-12-26T11:11:25.381Z,10.18
2022-12-26T11:14:03.385Z,10.18
2022-12-26T11:16:41.271Z,10.13
2022-12-26T11:19:28.016Z,10.13
2022-12-26T11:22:31.155Z,10.03
2022-12-26T11:25:13.972Z,9.97
2022-12-26T11:27:48.876Z,9.89
2022-12-26T11:30:31.271Z,9.88
2022-12-26T11:33:18.837Z,9.80
2022-12-26T11:35:55.300Z,9.99
2022-12-26T11:38:42.362Z,10.08
2022-12-26T11:41:32.800Z,10.06
2022-12-26T11:44:16.703Z,10.26
2022-12-26T11:46:52.837Z,10.22
2022-12-26T11:49:31.498Z,10.20
2022-12-26T11:52:38.342Z,10.35
2022-12-26T11:55:33.350Z,10.50
2022-12-26T11:58:19.539Z,10.48
2022-12-26T12:01:18.614Z,10.44
2022-12-26T12:03:51.506Z,10.53
2022-12-26T12:06:43.354Z,10.37
2022-12-26T12:09:22.981Z,10.28
2022-12-26T12:12:04.626Z,10.20
2022-12-26T12:14:54.198Z,10.18
2022-12-26T12:17:31.966Z,10.03
2022-12-26T12:20:18.392Z,9.69
2022-12-26T12:23:35.332Z,9.61
2022-12-26T12:26:13.045Z,9.47
2022-12-26T12:29:13.604Z,9.38
2022-12-26T12:32:01.975Z,9.11
2022-12-26T12:35:02.064Z,9.02
2022-12-26T12:37:45.789Z,9.04
2022-12-26T12:40:32.525Z,8.93
2022-12-26T12:43:16.124Z,8.86
2022-12-26T12:45:57.649Z,8.83
2022-12-26T12:48:46.814Z,8.81
2022-12-26T12:51:29.063Z,8.78
2022-12-26T12:54:28.050Z,8.89
2022-12-26T12:57:09.803Z,8.90
2022-12-26T12:59:58.861Z,8.85
2022-12-26T13:02:39.405Z,8.95
2022-12-26T13:05:21.209Z,8.97
2022-12-26T13:07:59.823Z,8.86
2022-12-26T13:10:35.783Z,8.84
2022-12-26T13:13:19.544Z,8.83
2022-12-26T13:15:57.153Z,8.92
2022-12-26T13:18:36.099Z,8.84
2022-12-26T13:21:12.868Z,8.60
2022-12-26T13:24:07.412Z,8.49
2022-12-26T13:26:44.541Z,8.44
2022-12-26T13:29:25.522Z,8.37
2022-12-26T13:31:59.532Z,8.38
2022-12-26T13:34:33.143Z,8.36
2022-12-26T13:37:06.037Z,8.33
2022-12-26T13:39:41.585Z,8.18
2022-12-26T13:42:38.669Z,8.08
2022-12-26T13:45:59.187Z,7.94
2022-12-26T13:49:03.746Z,7.90
2022-12-26T13:51:55.072Z,7.81
2022-12-26T13:54:29.849Z,7.68
2022-12-26T13:57:21.040Z,7.58
2022-12-26T14:00:23.969Z,7.54
2022-12-26T14:03:25.520Z,7.44
2022-12-26T14:06:21.932Z,7.53
2022-12-26T14:09:11.364Z,7.47
2022-12-26T14:12:09.811Z,7.38
2022-12-26T14:14:56.931Z,7.49
2022-12-26T14:17:38.719Z,7.38
2022-12-26T14:20:24.797Z,7.41
2022-12-26T14:23:12.946Z,7.37
2022-12-26T14:25:52.886Z,7.23
2022-12-26T14:28:33.306Z,7.29
2022-12-26T14:31:22.792Z,7.22
2022-12-26T14:34:06.938Z,7.16
2022-12-26T14:36:51.026Z,7.20
2022-12-26T14:39:33.373Z,7.26
2022-12-26T14:42:34.660Z,7.17
2022-12-26T14:45:36.564Z,7.12
2022-12-26T14:48:47.592Z,7.06
2022-12-26T14:51:37.282Z,6.98
2022-12-26T14:54:37.206Z,6.98
2022-12-26T14:57:46.727Z,6.89
2022-12-26T15:00:41.075Z,6.87
2022-12-26T15:03:41.794Z,6.80
2022-12-26T15:06:36.835Z,6.85
2022-12-26T15:09:38.183Z,6.72
2022-12-26T15:12:32.331Z,6.61
2022-12-26T15:15:24.110Z,6.57
2022-12-26T15:18:23.033Z,6.55
2022-12-26T15:21:16.933Z,6.43
2022-12-26T15:24:18.527Z,6.34
2022-12-26T15:27:19.798Z,6.27
2022-12-26T15:30:06.185Z,6.32
2022-12-26T15:32:47.461Z,6.29
2022-12-26T15:35:24.179Z,6.20
2022-12-26T15:38:13.698Z,6.13
2022-12-26T15:40:55.307Z,6.04
2022-12-26T15:43:40.528Z,5.71
2022-12-26T15:46:21.987Z,5.93
2022-12-26T15:49:21.017Z,5.89
2022-12-26T15:52:05.863Z,5.92
2022-12-26T15:55:01.224Z,5.75
2022-12-26T15:57:46.762Z,5.70
2022-12-26T16:00:23.768Z,5.82
2022-12-26T16:03:14.562Z,5.71
2022-12-26T16:06:00.045Z,5.52
2022-12-26T16:09:04.741Z,5.62
2022-12-26T16:11:49.880Z,5.61
2022-12-26T16:14:32.084Z,5.53
2022-12-26T16:17:17.725Z,5.33
2022-12-26T16:19:53.194Z,5.37
2022-12-26T16:22:49.410Z,5.26
2022-12-26T16:25:24.947Z,5.46
2022-12-26T16:28:00.908Z,5.31
2022-12-26T16:30:38.258Z,5.31
2022-12-26T16:33:13.504Z,5.28
2022-12-26T16:35:47.914Z,5.23
2022-12-26T16:38:30.005Z,5.21
2022-12-26T16:41:09.450Z,5.16
2022-12-26T16:43:42.400Z,5.13
2022-12-26T16:46:18.150Z,5.09
2022-12-26T16:48:55.383Z,5.07
2022-12-26T16:51:41.598Z,5.10
2022-12-26T16:54:26.397Z,4.99
2022-12-26T16:57:05.372Z,5.00
2022-12-26T16:59:45.250Z,4.97
2022-12-26T17:02:23.294Z,4.91
2022-12-26T17:05:01.472Z,4.90
2022-12-26T17:07:40.252Z,4.93
2022-12-26T17:10:19.865Z,4.86
2022-12-26T17:12:54.287Z,4.99
2022-12-26T17:15:31.600Z,5.01
2022-12-26T17:18:30.664Z,4.99
2022-12-26T17:21:21.420Z,5.03
2022-12-26T17:24:15.026Z,4.99
2022-12-26T17:26:52.989Z,4.99
2022-12-26T17:29:47.191Z,4.95
2022-12-26T17:32:36.400Z,4.91
2022-12-26T17:35:14.133Z,4.87
2022-12-26T17:37:51.090Z,4.76
2022-12-26T17:40:29.442Z,4.71
2022-12-26T17:43:08.013Z,4.67
2022-12-26T17:45:46.842Z,4.53
2022-12-26T17:48:20.014Z,4.54
2022-12-26T17:50:57.075Z,4.49
2022-12-26T17:53:33.045Z,4.54
2022-12-26T17:56:09.200Z,4.52
2022-12-26T17:58:42.293Z,4.43
2022-12-26T18:01:20.743Z,4.42
2022-12-26T18:03:54.599Z,4.06
2022-12-26T18:06:27.688Z,4.33
2022-12-26T18:09:00.470Z,4.30
2022-12-26T18:11:36.044Z,4.32
2022-12-26T18:14:14.307Z,4.31
2022-12-26T18:16:48.830Z,4.31
2022-12-26T18:19:21.847Z,4.00
2022-12-26T18:21:54.577Z,4.21
2022-12-26T18:24:27.382Z,4.16
2022-12-26T18:27:01.868Z,4.09
2022-12-26T18:29:34.690Z,4.06
2022-12-26T18:32:19.679Z,4.03
2022-12-26T18:34:53.238Z,3.96
2022-12-26T18:37:28.134Z,3.90
2022-12-26T18:40:01.040Z,3.95
2022-12-26T18:42:35.271Z,3.86
2022-12-26T18:45:08.584Z,3.80
2022-12-26T18:47:41.426Z,3.77
2022-12-26T18:50:16.685Z,3.75
2022-12-26T18:52:53.488Z,3.68
2022-12-26T18:55:28.599Z,3.71
2022-12-26T18:58:02.896Z,3.64
2022-12-26T19:00:36.335Z,3.52
2022-12-26T19:03:09.247Z,3.64
2022-12-26T19:05:42.376Z,3.59
2022-12-26T19:08:15.535Z,3.50
2022-12-26T19:10:48.348Z,3.34
2022-12-26T19:13:22.668Z,3.50
2022-12-26T19:15:55.763Z,3.49
2022-12-26T19:18:28.583Z,3.45
2022-12-26T19:21:02.028Z,3.41
2022-12-26T19:23:34.895Z,3.40
2022-12-26T19:26:11.575Z,3.36
2022-12-26T19:28:45.903Z,3.40
2022-12-26T19:31:18.882Z,3.35
2022-12-26T19:33:51.775Z,3.36
2022-12-26T19:36:24.555Z,3.29
2022-12-26T19:38:57.625Z,3.28
2022-12-26T19:41:30.417Z,3.30
2022-12-26T19:44:04.628Z,3.21
2022-12-26T19:46:37.925Z,3.20
2022-12-26T19:49:10.764Z,3.25
2022-12-26T19:51:43.601Z,3.22
2022-12-26T19:54:16.673Z,3.19
2022-12-26T19:56:49.883Z,3.15
2022-12-26T19:59:24.064Z,3.19
2022-12-26T20:01:57.064Z,3.18
2022-12-26T20:04:30.046Z,3.20
2022-12-26T20:07:02.917Z,3.15
2022-12-26T20:09:35.878Z,3.10
2022-12-26T20:12:09.096Z,3.06
2022-12-26T20:14:43.395Z,3.06
2022-12-26T20:17:16.645Z,3.11
2022-12-26T20:19:50.114Z,3.19
2022-12-26T20:22:23.481Z,3.15
2022-12-26T20:24:56.599Z,3.19
2022-12-26T20:27:29.752Z,3.19
2022-12-26T20:30:04.988Z,3.20
2022-12-26T20:32:37.843Z,3.18
2022-12-26T20:35:10.858Z,3.19
2022-12-26T20:37:43.648Z,3.14
2022-12-26T20:40:16.627Z,3.06
2022-12-26T20:42:49.506Z,3.08
2022-12-26T20:45:23.712Z,3.07
2022-12-26T20:47:56.521Z,3.06
2022-12-26T20:50:29.373Z,3.00
2022-12-26T20:53:02.182Z,2.99
2022-12-26T20:55:37.107Z,2.98
2022-12-26T20:58:09.952Z,2.98
2022-12-26T21:00:45.744Z,2.97
2022-12-26T21:03:18.686Z,2.97
2022-12-26T21:05:51.923Z,2.87
2022-12-26T21:08:24.835Z,2.88
2022-12-26T21:10:57.814Z,2.91
2022-12-26T21:13:30.723Z,2.86
2022-12-26T21:16:10.190Z,2.95
2022-12-26T21:18:43.781Z,2.98
2022-12-26T21:21:18.656Z,3.03
2022-12-26T21:23:56.854Z,3.09
2022-12-26T21:26:30.057Z,3.11
2022-12-26T21:29:05.621Z,3.17
2022-12-26T21:31:40.362Z,3.22
2022-12-26T21:34:15.267Z,3.21
2022-12-26T21:37:08.554Z,3.21
2022-12-26T21:39:42.259Z,3.24
2022-12-26T21:42:15.358Z,3.22
2022-12-26T21:44:48.810Z,3.18
2022-12-26T21:47:23.098Z,3.09
2022-12-26T21:49:55.922Z,3.05
2022-12-26T21:52:28.801Z,3.14
2022-12-26T21:55:19.703Z,3.05
2022-12-26T21:57:52.645Z,3.16
2022-12-26T22:00:25.689Z,3.20
2022-12-26T22:03:17.524Z,3.16
2022-12-26T22:05:50.620Z,3.14
2022-12-26T22:08:23.431Z,3.15
2022-12-26T22:11:13.630Z,3.16
2022-12-26T22:13:47.044Z,3.12
2022-12-26T22:16:20.211Z,3.17
2022-12-26T22:18:57.329Z,3.04
2022-12-26T22:21:30.270Z,3.09
2022-12-26T22:24:03.173Z,3.09
2022-12-26T22:26:35.998Z,3.08
2022-12-26T22:29:09.019Z,3.10
2022-12-26T22:31:41.835Z,3.01
2022-12-26T22:34:17.269Z,3.07
2022-12-26T22:36:50.337Z,2.95
2022-12-26T22:39:23.163Z,3.06
2022-12-26T22:42:01.999Z,3.08
2022-12-26T22:44:35.184Z,3.03
2022-12-26T22:47:07.983Z,3.05
2022-12-26T22:49:42.161Z,3.16
2022-12-26T22:52:16.105Z,3.16
2022-12-26T22:54:49.079Z,3.19
2022-12-26T22:57:22.491Z,3.19
2022-12-26T23:00:11.610Z,3.17
2022-12-26T23:02:44.761Z,3.25
2022-12-26T23:05:20.038Z,3.24
2022-12-26T23:07:54.503Z,3.30
2022-12-26T23:10:30.369Z,3.24
2022-12-26T23:13:03.822Z,3.38
2022-12-26T23:15:41.616Z,3.45
2022-12-26T23:18:42.956Z,3.33
2022-12-26T23:21:39.715Z,3.36
2022-12-26T23:24:16.644Z,3.35
2022-12-26T23:26:51.560Z,3.42
2022-12-26T23:29:42.653Z,3.30
2022-12-26T23:32:15.542Z,3.22
2022-12-26T23:34:48.364Z,3.19
2022-12-26T23:37:22.663Z,3.23
2022-12-26T23:39:55.497Z,3.22
2022-12-26T23:42:28.374Z,3.16
2022-12-26T23:45:01.201Z,3.24
2022-12-26T23:47:37.003Z,3.21
2022-12-26T23:50:12.102Z,3.14
2022-12-26T23:52:46.517Z,3.18
2022-12-26T23:55:19.395Z,3.17
2022-12-26T23:57:52.263Z,3.18
